sensor_id;sensor_type;location;lat;lon;timestamp;pressure;altitude;pressure_sealevel;temperature;humidity
15604;BME280;7902;49.042;9.092;2023-12-07T00:01:55;99407.16;;;7.19;65.21
15604;BME280;7902;49.042;9.092;2023-12-07T00:04:21;99412.38;;;7.19;65.46
15604;BME280;7902;49.042;9.092;2023-12-07T00:06:47;99414.63;;;7.25;65.29
15604;BME280;7902;49.042;9.092;2023-12-07T00:09:13;99418.53;;;7.34;65.16
15604;BME280;7902;49.042;9.092;2023-12-07T00:11:38;99413.66;;;7.43;64.56
15604;BME280;7902;49.042;9.092;2023-12-07T00:14:04;99418.19;;;7.24;65.04
15604;BME280;7902;49.042;9.092;2023-12-07T00:16:30;99413.81;;;7.25;65.52
15604;BME280;7902;49.042;9.092;2023-12-07T00:18:57;99411.69;;;7.31;64.91
15604;BME280;7902;49.042;9.092;2023-12-07T00:21:23;99417.59;;;7.35;65.16
15604;BME280;7902;49.042;9.092;2023-12-07T00:23:48;99422.47;;;7.25;65.44
15604;BME280;7902;49.042;9.092;2023-12-07T00:26:14;99421.81;;;7.37;64.69
15604;BME280;7902;49.042;9.092;2023-12-07T00:28:40;99418.78;;;7.29;65.39
15604;BME280;7902;49.042;9.092;2023-12-07T00:31:06;99421.31;;;7.46;64.71
15604;BME280;7902;49.042;9.092;2023-12-07T00:33:33;99435.06;;;7.50;64.60
15604;BME280;7902;49.042;9.092;2023-12-07T00:35:59;99429.34;;;7.43;64.93
15604;BME280;7902;49.042;9.092;2023-12-07T00:38:25;99426.47;;;7.48;64.63
15604;BME280;7902;49.042;9.092;2023-12-07T00:40:51;99431.78;;;7.46;64.55
15604;BME280;7902;49.042;9.092;2023-12-07T00:43:17;99437.41;;;7.55;64.02
15604;BME280;7902;49.042;9.092;2023-12-07T00:45:43;99440.44;;;7.31;65.29
15604;BME280;7902;49.042;9.092;2023-12-07T00:48:09;99440.13;;;7.53;64.43
15604;BME280;7902;49.042;9.092;2023-12-07T00:50:35;99434.72;;;7.40;64.51
15604;BME280;7902;49.042;9.092;2023-12-07T00:53:00;99433.34;;;7.49;64.48
15604;BME280;7902;49.042;9.092;2023-12-07T00:55:26;99435.56;;;7.41;64.89
15604;BME280;7902;49.042;9.092;2023-12-07T00:57:52;99428.72;;;7.54;64.31
15604;BME280;7902;49.042;9.092;2023-12-07T01:00:18;99435.91;;;7.50;64.62
15604;BME280;7902;49.042;9.092;2023-12-07T01:02:44;99442.50;;;7.58;64.35
15604;BME280;7902;49.042;9.092;2023-12-07T01:05:10;99444.91;;;7.45;64.85
15604;BME280;7902;49.042;9.092;2023-12-07T01:07:37;99451.91;;;7.44;64.87
15604;BME280;7902;49.042;9.092;2023-12-07T01:10:03;99446.66;;;7.44;64.48
15604;BME280;7902;49.042;9.092;2023-12-07T01:12:30;99453.00;;;7.56;64.36
15604;BME280;7902;49.042;9.092;2023-12-07T01:14:56;99451.50;;;7.52;64.15
15604;BME280;7902;49.042;9.092;2023-12-07T01:17:21;99457.13;;;7.44;64.39
15604;BME280;7902;49.042;9.092;2023-12-07T01:19:47;99457.47;;;7.38;65.19
15604;BME280;7902;49.042;9.092;2023-12-07T01:22:13;99466.56;;;7.31;65.15
15604;BME280;7902;49.042;9.092;2023-12-07T01:24:39;99463.03;;;7.32;65.33
15604;BME280;7902;49.042;9.092;2023-12-07T01:27:05;99466.72;;;7.28;65.28
15604;BME280;7902;49.042;9.092;2023-12-07T01:29:31;99469.53;;;7.41;64.90
15604;BME280;7902;49.042;9.092;2023-12-07T01:31:57;99468.78;;;7.55;64.53
15604;BME280;7902;49.042;9.092;2023-12-07T01:34:22;99474.91;;;7.54;64.76
15604;BME280;7902;49.042;9.092;2023-12-07T01:36:48;99481.59;;;7.59;64.23
15604;BME280;7902;49.042;9.092;2023-12-07T01:39:14;99476.47;;;7.58;64.25
15604;BME280;7902;49.042;9.092;2023-12-07T01:41:41;99477.38;;;7.57;63.94
15604;BME280;7902;49.042;9.092;2023-12-07T01:44:07;99477.78;;;7.49;64.73
15604;BME280;7902;49.042;9.092;2023-12-07T01:46:34;99482.31;;;7.45;64.60
15604;BME280;7902;49.042;9.092;2023-12-07T01:49:00;99479.53;;;7.33;64.58
15604;BME280;7902;49.042;9.092;2023-12-07T01:51:26;99480.09;;;7.22;65.17
15604;BME280;7902;49.042;9.092;2023-12-07T01:53:53;99478.41;;;7.21;65.06
15604;BME280;7902;49.042;9.092;2023-12-07T01:56:20;99476.41;;;7.26;65.08
15604;BME280;7902;49.042;9.092;2023-12-07T01:58:46;99480.28;;;7.19;65.33
15604;BME280;7902;49.042;9.092;2023-12-07T02:01:12;99480.16;;;7.21;65.08
15604;BME280;7902;49.042;9.092;2023-12-07T02:03:41;99488.25;;;7.16;65.99
15604;BME280;7902;49.042;9.092;2023-12-07T02:06:07;99486.34;;;7.20;65.41
15604;BME280;7902;49.042;9.092;2023-12-07T02:08:36;99488.94;;;7.20;65.10
15604;BME280;7902;49.042;9.092;2023-12-07T02:11:09;99484.78;;;7.16;65.48
15604;BME280;7902;49.042;9.092;2023-12-07T02:13:40;99485.19;;;7.08;65.49
15604;BME280;7902;49.042;9.092;2023-12-07T02:16:19;99482.59;;;7.08;65.25
15604;BME280;7902;49.042;9.092;2023-12-07T02:19:02;99478.28;;;7.07;65.67
15604;BME280;7902;49.042;9.092;2023-12-07T02:24:22;99481.91;;;7.04;65.40
15604;BME280;7902;49.042;9.092;2023-12-07T02:26:51;99482.28;;;6.97;65.12
15604;BME280;7902;49.042;9.092;2023-12-07T02:29:17;99479.69;;;6.97;65.51
15604;BME280;7902;49.042;9.092;2023-12-07T02:31:43;99472.19;;;6.91;65.51
15604;BME280;7902;49.042;9.092;2023-12-07T02:34:09;99482.88;;;6.86;65.90
15604;BME280;7902;49.042;9.092;2023-12-07T02:36:38;99476.56;;;6.90;65.52
15604;BME280;7902;49.042;9.092;2023-12-07T02:39:05;99476.81;;;6.86;65.41
15604;BME280;7902;49.042;9.092;2023-12-07T02:41:33;99473.88;;;6.75;66.46
15604;BME280;7902;49.042;9.092;2023-12-07T02:43:59;99484.88;;;6.81;65.93
15604;BME280;7902;49.042;9.092;2023-12-07T02:46:25;99486.56;;;6.65;65.70
15604;BME280;7902;49.042;9.092;2023-12-07T02:48:52;99484.16;;;6.60;66.49
15604;BME280;7902;49.042;9.092;2023-12-07T02:51:17;99478.81;;;6.64;66.21
15604;BME280;7902;49.042;9.092;2023-12-07T02:53:44;99480.66;;;6.61;66.32
15604;BME280;7902;49.042;9.092;2023-12-07T02:56:10;99480.59;;;6.63;66.35
15604;BME280;7902;49.042;9.092;2023-12-07T02:58:36;99481.19;;;6.51;65.97
15604;BME280;7902;49.042;9.092;2023-12-07T03:01:02;99482.09;;;6.50;66.51
15604;BME280;7902;49.042;9.092;2023-12-07T03:03:28;99486.09;;;6.57;66.48
15604;BME280;7902;49.042;9.092;2023-12-07T03:05:54;99486.34;;;6.35;66.71
15604;BME280;7902;49.042;9.092;2023-12-07T03:08:20;99483.94;;;6.31;66.60
15604;BME280;7902;49.042;9.092;2023-12-07T03:10:46;99494.44;;;6.29;66.07
15604;BME280;7902;49.042;9.092;2023-12-07T03:13:12;99488.09;;;6.35;66.64
15604;BME280;7902;49.042;9.092;2023-12-07T03:15:38;99489.41;;;6.26;66.95
15604;BME280;7902;49.042;9.092;2023-12-07T03:18:03;99486.63;;;6.29;66.81
15604;BME280;7902;49.042;9.092;2023-12-07T03:20:29;99489.81;;;6.17;66.71
15604;BME280;7902;49.042;9.092;2023-12-07T03:22:55;99498.91;;;6.08;67.44
15604;BME280;7902;49.042;9.092;2023-12-07T03:25:21;99495.63;;;6.05;66.55
15604;BME280;7902;49.042;9.092;2023-12-07T03:27:47;99498.84;;;6.10;67.15
15604;BME280;7902;49.042;9.092;2023-12-07T03:30:13;99491.31;;;6.04;66.83
15604;BME280;7902;49.042;9.092;2023-12-07T03:32:39;99493.72;;;6.08;66.79
15604;BME280;7902;49.042;9.092;2023-12-07T03:35:05;99495.78;;;6.02;66.76
15604;BME280;7902;49.042;9.092;2023-12-07T03:37:31;99496.22;;;5.93;67.11
15604;BME280;7902;49.042;9.092;2023-12-07T03:39:57;99498.09;;;5.89;67.19
15604;BME280;7902;49.042;9.092;2023-12-07T03:42:23;99490.47;;;5.85;67.66
15604;BME280;7902;49.042;9.092;2023-12-07T03:44:49;99494.22;;;5.79;67.66
15604;BME280;7902;49.042;9.092;2023-12-07T03:47:14;99502.13;;;5.78;67.17
15604;BME280;7902;49.042;9.092;2023-12-07T03:49:44;99504.09;;;5.72;67.23
15604;BME280;7902;49.042;9.092;2023-12-07T03:52:10;99504.25;;;5.69;67.21
15604;BME280;7902;49.042;9.092;2023-12-07T03:54:36;99509.84;;;5.60;67.37
15604;BME280;7902;49.042;9.092;2023-12-07T03:57:03;99508.03;;;5.62;67.40
15604;BME280;7902;49.042;9.092;2023-12-07T03:59:29;99511.84;;;5.55;67.29
15604;BME280;7902;49.042;9.092;2023-12-07T04:01:55;99514.44;;;5.55;68.10
15604;BME280;7902;49.042;9.092;2023-12-07T04:04:21;99519.97;;;5.48;68.13
15604;BME280;7902;49.042;9.092;2023-12-07T04:06:47;99515.47;;;5.51;67.92
15604;BME280;7902;49.042;9.092;2023-12-07T04:09:14;99513.00;;;5.48;67.63
15604;BME280;7902;49.042;9.092;2023-12-07T04:11:39;99512.09;;;5.49;67.57
15604;BME280;7902;49.042;9.092;2023-12-07T04:14:05;99513.88;;;5.49;67.60
15604;BME280;7902;49.042;9.092;2023-12-07T04:16:31;99511.31;;;5.47;67.68
15604;BME280;7902;49.042;9.092;2023-12-07T04:18:57;99517.31;;;5.49;67.19
15604;BME280;7902;49.042;9.092;2023-12-07T04:21:23;99515.78;;;5.45;67.67
15604;BME280;7902;49.042;9.092;2023-12-07T04:23:49;99518.59;;;5.41;67.55
15604;BME280;7902;49.042;9.092;2023-12-07T04:26:15;99516.69;;;5.44;67.41
15604;BME280;7902;49.042;9.092;2023-12-07T04:28:41;99519.13;;;5.47;67.43
15604;BME280;7902;49.042;9.092;2023-12-07T04:31:07;99521.25;;;5.39;68.35
15604;BME280;7902;49.042;9.092;2023-12-07T04:33:33;99530.44;;;5.46;67.52
15604;BME280;7902;49.042;9.092;2023-12-07T04:35:59;99532.09;;;5.49;67.54
15604;BME280;7902;49.042;9.092;2023-12-07T04:38:25;99525.25;;;5.46;67.43
15604;BME280;7902;49.042;9.092;2023-12-07T04:40:51;99531.66;;;5.39;67.79
15604;BME280;7902;49.042;9.092;2023-12-07T04:43:16;99539.72;;;5.33;67.60
15604;BME280;7902;49.042;9.092;2023-12-07T04:45:42;99536.47;;;5.28;68.05
15604;BME280;7902;49.042;9.092;2023-12-07T04:48:08;99539.19;;;5.26;67.65
15604;BME280;7902;49.042;9.092;2023-12-07T04:50:34;99532.13;;;5.28;68.06
15604;BME280;7902;49.042;9.092;2023-12-07T04:53:00;99537.28;;;5.30;67.94
15604;BME280;7902;49.042;9.092;2023-12-07T04:55:26;99543.44;;;5.27;67.98
15604;BME280;7902;49.042;9.092;2023-12-07T04:57:52;99534.88;;;5.25;67.71
15604;BME280;7902;49.042;9.092;2023-12-07T05:00:18;99540.78;;;5.29;67.43
15604;BME280;7902;49.042;9.092;2023-12-07T05:02:44;99534.09;;;5.23;67.77
15604;BME280;7902;49.042;9.092;2023-12-07T05:05:10;99536.63;;;5.25;67.93
15604;BME280;7902;49.042;9.092;2023-12-07T05:07:36;99533.38;;;5.20;67.86
15604;BME280;7902;49.042;9.092;2023-12-07T05:10:02;99542.09;;;5.19;67.89
15604;BME280;7902;49.042;9.092;2023-12-07T05:12:28;99542.84;;;5.22;67.71
15604;BME280;7902;49.042;9.092;2023-12-07T05:14:54;99545.44;;;5.22;67.77
15604;BME280;7902;49.042;9.092;2023-12-07T05:17:20;99544.66;;;5.20;67.52
15604;BME280;7902;49.042;9.092;2023-12-07T05:19:46;99546.41;;;5.20;67.56
15604;BME280;7902;49.042;9.092;2023-12-07T05:22:14;99542.44;;;5.11;67.97
15604;BME280;7902;49.042;9.092;2023-12-07T05:24:39;99543.41;;;5.09;67.86
15604;BME280;7902;49.042;9.092;2023-12-07T05:27:05;99539.34;;;5.03;68.26
15604;BME280;7902;49.042;9.092;2023-12-07T05:29:32;99541.38;;;5.15;67.65
15604;BME280;7902;49.042;9.092;2023-12-07T05:31:57;99544.66;;;5.20;67.61
15604;BME280;7902;49.042;9.092;2023-12-07T05:34:23;99539.00;;;5.11;67.66
15604;BME280;7902;49.042;9.092;2023-12-07T05:36:49;99551.75;;;5.17;67.57
15604;BME280;7902;49.042;9.092;2023-12-07T05:39:15;99548.28;;;5.16;67.97
15604;BME280;7902;49.042;9.092;2023-12-07T05:41:43;99549.00;;;5.20;67.75
15604;BME280;7902;49.042;9.092;2023-12-07T05:44:09;99543.03;;;5.18;68.04
15604;BME280;7902;49.042;9.092;2023-12-07T05:46:35;99542.75;;;5.24;67.74
15604;BME280;7902;49.042;9.092;2023-12-07T05:49:01;99540.72;;;5.30;67.35
15604;BME280;7902;49.042;9.092;2023-12-07T05:51:27;99549.25;;;5.34;67.95
15604;BME280;7902;49.042;9.092;2023-12-07T05:53:53;99539.09;;;5.28;67.14
15604;BME280;7902;49.042;9.092;2023-12-07T05:56:19;99540.03;;;5.27;67.54
15604;BME280;7902;49.042;9.092;2023-12-07T05:58:48;99541.97;;;5.22;67.47
15604;BME280;7902;49.042;9.092;2023-12-07T06:01:17;99547.31;;;5.19;67.57
15604;BME280;7902;49.042;9.092;2023-12-07T06:03:43;99551.59;;;5.20;67.53
15604;BME280;7902;49.042;9.092;2023-12-07T06:06:10;99546.13;;;5.26;67.19
15604;BME280;7902;49.042;9.092;2023-12-07T06:08:37;99554.00;;;5.24;67.84
15604;BME280;7902;49.042;9.092;2023-12-07T06:11:03;99559.34;;;5.21;67.34
15604;BME280;7902;49.042;9.092;2023-12-07T06:13:29;99562.06;;;5.18;67.80
15604;BME280;7902;49.042;9.092;2023-12-07T06:15:55;99559.34;;;5.21;67.25
15604;BME280;7902;49.042;9.092;2023-12-07T06:18:21;99554.41;;;5.15;67.31
15604;BME280;7902;49.042;9.092;2023-12-07T06:20:46;99562.28;;;5.14;67.96
15604;BME280;7902;49.042;9.092;2023-12-07T06:23:12;99556.06;;;5.18;67.72
15604;BME280;7902;49.042;9.092;2023-12-07T06:25:39;99560.31;;;5.19;67.18
15604;BME280;7902;49.042;9.092;2023-12-07T06:28:05;99554.56;;;5.12;67.27
15604;BME280;7902;49.042;9.092;2023-12-07T06:30:31;99554.66;;;5.09;67.76
15604;BME280;7902;49.042;9.092;2023-12-07T06:32:57;99552.91;;;5.10;67.43
15604;BME280;7902;49.042;9.092;2023-12-07T06:35:23;99553.00;;;5.08;67.98
15604;BME280;7902;49.042;9.092;2023-12-07T06:37:49;99552.16;;;5.08;67.84
15604;BME280;7902;49.042;9.092;2023-12-07T06:40:15;99549.84;;;5.00;67.87
15604;BME280;7902;49.042;9.092;2023-12-07T06:42:41;99548.03;;;5.02;67.70
15604;BME280;7902;49.042;9.092;2023-12-07T06:45:07;99558.41;;;5.04;68.05
15604;BME280;7902;49.042;9.092;2023-12-07T06:47:37;99547.19;;;5.02;67.53
15604;BME280;7902;49.042;9.092;2023-12-07T06:50:04;99554.81;;;5.06;67.25
15604;BME280;7902;49.042;9.092;2023-12-07T06:52:30;99560.22;;;5.02;67.33
15604;BME280;7902;49.042;9.092;2023-12-07T06:54:56;99565.66;;;4.96;67.18
15604;BME280;7902;49.042;9.092;2023-12-07T06:57:23;99559.69;;;4.94;67.88
15604;BME280;7902;49.042;9.092;2023-12-07T06:59:49;99569.25;;;4.93;67.38
15604;BME280;7902;49.042;9.092;2023-12-07T07:02:15;99564.81;;;4.95;67.31
15604;BME280;7902;49.042;9.092;2023-12-07T07:04:41;99558.91;;;4.92;67.94
15604;BME280;7902;49.042;9.092;2023-12-07T07:07:07;99564.34;;;4.85;67.64
15604;BME280;7902;49.042;9.092;2023-12-07T07:09:32;99563.41;;;4.88;67.78
15604;BME280;7902;49.042;9.092;2023-12-07T07:11:58;99569.69;;;4.82;67.64
15604;BME280;7902;49.042;9.092;2023-12-07T07:14:24;99567.09;;;4.82;68.04
15604;BME280;7902;49.042;9.092;2023-12-07T07:16:50;99569.03;;;4.77;67.80
15604;BME280;7902;49.042;9.092;2023-12-07T07:19:17;99567.09;;;4.82;67.43
15604;BME280;7902;49.042;9.092;2023-12-07T07:21:43;99559.72;;;4.72;67.49
15604;BME280;7902;49.042;9.092;2023-12-07T07:24:09;99558.88;;;4.71;67.54
15604;BME280;7902;49.042;9.092;2023-12-07T07:26:35;99564.34;;;4.65;67.44
15604;BME280;7902;49.042;9.092;2023-12-07T07:29:02;99563.31;;;4.69;67.75
15604;BME280;7902;49.042;9.092;2023-12-07T07:31:29;99559.91;;;4.67;67.88
15604;BME280;7902;49.042;9.092;2023-12-07T07:33:55;99559.91;;;4.67;67.33
15604;BME280;7902;49.042;9.092;2023-12-07T07:36:21;99564.59;;;4.59;67.91
15604;BME280;7902;49.042;9.092;2023-12-07T07:38:47;99561.84;;;4.62;68.00
15604;BME280;7902;49.042;9.092;2023-12-07T07:41:14;99565.50;;;4.58;67.90
15604;BME280;7902;49.042;9.092;2023-12-07T07:43:40;99565.41;;;4.61;68.10
15604;BME280;7902;49.042;9.092;2023-12-07T07:46:06;99571.22;;;4.66;67.85
15604;BME280;7902;49.042;9.092;2023-12-07T07:48:32;99578.13;;;4.67;67.74
15604;BME280;7902;49.042;9.092;2023-12-07T07:50:58;99583.59;;;4.61;67.92
15604;BME280;7902;49.042;9.092;2023-12-07T07:53:24;99591.41;;;4.61;68.12
15604;BME280;7902;49.042;9.092;2023-12-07T07:55:50;99589.75;;;4.59;67.81
15604;BME280;7902;49.042;9.092;2023-12-07T07:58:16;99584.69;;;4.56;68.03
15604;BME280;7902;49.042;9.092;2023-12-07T08:00:42;99586.31;;;4.58;67.51
15604;BME280;7902;49.042;9.092;2023-12-07T08:03:08;99580.19;;;4.59;67.88
15604;BME280;7902;49.042;9.092;2023-12-07T08:05:34;99592.34;;;4.59;67.91
15604;BME280;7902;49.042;9.092;2023-12-07T08:08:01;99595.81;;;4.59;67.67
15604;BME280;7902;49.042;9.092;2023-12-07T08:10:27;99588.91;;;4.58;67.83
15604;BME280;7902;49.042;9.092;2023-12-07T08:12:52;99599.22;;;4.61;68.20
15604;BME280;7902;49.042;9.092;2023-12-07T08:15:18;99599.06;;;4.64;67.77
15604;BME280;7902;49.042;9.092;2023-12-07T08:17:46;99593.88;;;4.64;67.92
15604;BME280;7902;49.042;9.092;2023-12-07T08:20:12;99589.19;;;4.72;68.12
15604;BME280;7902;49.042;9.092;2023-12-07T08:22:41;99594.88;;;4.82;67.48
15604;BME280;7902;49.042;9.092;2023-12-07T08:25:07;99585.34;;;4.81;67.79
15604;BME280;7902;49.042;9.092;2023-12-07T08:27:37;99592.31;;;4.80;67.77
15604;BME280;7902;49.042;9.092;2023-12-07T08:30:03;99592.22;;;4.83;67.48
15604;BME280;7902;49.042;9.092;2023-12-07T08:32:30;99594.81;;;4.83;67.81
15604;BME280;7902;49.042;9.092;2023-12-07T08:34:56;99593.63;;;4.91;67.29
15604;BME280;7902;49.042;9.092;2023-12-07T08:37:21;99588.63;;;4.86;68.03
15604;BME280;7902;49.042;9.092;2023-12-07T08:39:47;99584.72;;;4.96;67.57
15604;BME280;7902;49.042;9.092;2023-12-07T08:42:14;99586.34;;;5.19;67.05
15604;BME280;7902;49.042;9.092;2023-12-07T08:44:40;99586.63;;;5.13;67.34
15604;BME280;7902;49.042;9.092;2023-12-07T08:47:06;99580.50;;;5.14;67.11
15604;BME280;7902;49.042;9.092;2023-12-07T08:49:32;99576.34;;;5.10;67.21
15604;BME280;7902;49.042;9.092;2023-12-07T08:51:58;99579.84;;;5.09;67.13
15604;BME280;7902;49.042;9.092;2023-12-07T08:54:24;99580.63;;;5.11;67.48
15604;BME280;7902;49.042;9.092;2023-12-07T08:56:51;99575.22;;;5.15;67.27
15604;BME280;7902;49.042;9.092;2023-12-07T08:59:16;99568.41;;;5.13;67.23
15604;BME280;7902;49.042;9.092;2023-12-07T09:01:42;99570.47;;;5.25;66.96
15604;BME280;7902;49.042;9.092;2023-12-07T09:04:08;99561.47;;;5.32;67.38
15604;BME280;7902;49.042;9.092;2023-12-07T09:06:35;99552.09;;;5.48;66.24
15604;BME280;7902;49.042;9.092;2023-12-07T09:09:03;99554.03;;;5.43;66.72
15604;BME280;7902;49.042;9.092;2023-12-07T09:11:30;99550.53;;;5.44;67.14
15604;BME280;7902;49.042;9.092;2023-12-07T09:13:57;99552.31;;;5.62;66.31
15604;BME280;7902;49.042;9.092;2023-12-07T09:16:22;99547.09;;;5.62;66.75
15604;BME280;7902;49.042;9.092;2023-12-07T09:18:49;99545.50;;;5.79;65.85
15604;BME280;7902;49.042;9.092;2023-12-07T09:21:15;99556.59;;;5.63;66.81
15604;BME280;7902;49.042;9.092;2023-12-07T09:23:40;99555.94;;;5.79;66.01
15604;BME280;7902;49.042;9.092;2023-12-07T09:26:06;99551.47;;;5.81;65.86
15604;BME280;7902;49.042;9.092;2023-12-07T09:28:33;99559.84;;;5.68;66.60
15604;BME280;7902;49.042;9.092;2023-12-07T09:30:59;99541.47;;;5.71;67.10
15604;BME280;7902;49.042;9.092;2023-12-07T09:33:25;99541.47;;;5.71;66.88
15604;BME280;7902;49.042;9.092;2023-12-07T09:35:51;99537.47;;;5.83;66.45
15604;BME280;7902;49.042;9.092;2023-12-07T09:38:17;99535.63;;;5.85;66.25
15604;BME280;7902;49.042;9.092;2023-12-07T09:40:45;99532.25;;;5.83;65.92
15604;BME280;7902;49.042;9.092;2023-12-07T09:43:12;99537.56;;;6.00;66.16
15604;BME280;7902;49.042;9.092;2023-12-07T09:45:38;99548.88;;;5.99;65.96
15604;BME280;7902;49.042;9.092;2023-12-07T09:48:04;99545.16;;;6.05;65.66
15604;BME280;7902;49.042;9.092;2023-12-07T09:50:30;99542.06;;;5.97;67.00
15604;BME280;7902;49.042;9.092;2023-12-07T09:52:58;99543.19;;;6.10;66.53
15604;BME280;7902;49.042;9.092;2023-12-07T09:55:24;99541.13;;;6.16;65.86
15604;BME280;7902;49.042;9.092;2023-12-07T09:57:53;99539.28;;;6.18;65.44
15604;BME280;7902;49.042;9.092;2023-12-07T10:00:22;99528.09;;;6.16;65.27
15604;BME280;7902;49.042;9.092;2023-12-07T10:02:48;99527.44;;;6.30;65.07
15604;BME280;7902;49.042;9.092;2023-12-07T10:05:15;99523.47;;;6.40;65.19
15604;BME280;7902;49.042;9.092;2023-12-07T10:07:45;99522.41;;;6.44;64.76
15604;BME280;7902;49.042;9.092;2023-12-07T10:10:13;99524.81;;;6.30;65.46
15604;BME280;7902;49.042;9.092;2023-12-07T10:12:56;99518.09;;;6.43;64.94
15604;BME280;7902;49.042;9.092;2023-12-07T10:15:24;99508.09;;;6.34;65.15
15604;BME280;7902;49.042;9.092;2023-12-07T10:17:53;99502.28;;;6.46;64.85
15604;BME280;7902;49.042;9.092;2023-12-07T10:20:23;99503.06;;;6.48;65.28
15604;BME280;7902;49.042;9.092;2023-12-07T10:23:04;99501.53;;;6.44;65.13
15604;BME280;7902;49.042;9.092;2023-12-07T10:25:37;99499.38;;;6.35;64.95
15604;BME280;7902;49.042;9.092;2023-12-07T10:28:03;99496.75;;;6.52;64.50
15604;BME280;7902;49.042;9.092;2023-12-07T10:30:37;99500.22;;;6.53;64.88
15604;BME280;7902;49.042;9.092;2023-12-07T10:33:05;99483.44;;;6.58;65.07
15604;BME280;7902;49.042;9.092;2023-12-07T10:35:33;99489.31;;;6.62;64.84
15604;BME280;7902;49.042;9.092;2023-12-07T10:37:59;99490.53;;;6.55;65.16
15604;BME280;7902;49.042;9.092;2023-12-07T10:40:25;99480.81;;;6.58;64.84
15604;BME280;7902;49.042;9.092;2023-12-07T10:42:56;99483.88;;;6.67;64.16
15604;BME280;7902;49.042;9.092;2023-12-07T10:45:24;99476.78;;;6.69;64.25
15604;BME280;7902;49.042;9.092;2023-12-07T10:47:51;99475.81;;;6.71;64.22
15604;BME280;7902;49.042;9.092;2023-12-07T10:50:22;99473.13;;;6.73;64.56
15604;BME280;7902;49.042;9.092;2023-12-07T10:52:52;99487.78;;;6.75;63.93
15604;BME280;7902;49.042;9.092;2023-12-07T10:55:21;99480.25;;;6.69;64.52
15604;BME280;7902;49.042;9.092;2023-12-07T10:57:52;99482.19;;;6.66;65.46
15604;BME280;7902;49.042;9.092;2023-12-07T11:00:19;99477.88;;;6.82;64.12
15604;BME280;7902;49.042;9.092;2023-12-07T11:02:46;99475.28;;;6.82;64.59
15604;BME280;7902;49.042;9.092;2023-12-07T11:05:12;99462.97;;;6.84;64.33
15604;BME280;7902;49.042;9.092;2023-12-07T11:08:08;99455.13;;;6.84;64.25
15604;BME280;7902;49.042;9.092;2023-12-07T11:10:53;99441.94;;;6.87;63.74
15604;BME280;7902;49.042;9.092;2023-12-07T11:13:33;99428.56;;;6.93;63.79
15604;BME280;7902;49.042;9.092;2023-12-07T11:16:01;99422.41;;;6.94;63.81
15604;BME280;7902;49.042;9.092;2023-12-07T11:18:27;99419.63;;;6.97;63.66
15604;BME280;7902;49.042;9.092;2023-12-07T11:20:57;99417.28;;;6.92;63.58
15604;BME280;7902;49.042;9.092;2023-12-07T11:23:23;99413.06;;;6.90;64.62
15604;BME280;7902;49.042;9.092;2023-12-07T11:25:51;99409.19;;;6.97;64.02
15604;BME280;7902;49.042;9.092;2023-12-07T11:28:18;99408.63;;;6.92;63.74
15604;BME280;7902;49.042;9.092;2023-12-07T11:30:45;99406.44;;;7.00;63.55
15604;BME280;7902;49.042;9.092;2023-12-07T11:33:12;99399.94;;;7.07;64.06
15604;BME280;7902;49.042;9.092;2023-12-07T11:38:27;99389.00;;;7.00;63.61
15604;BME280;7902;49.042;9.092;2023-12-07T11:40:54;99386.75;;;7.10;63.83
15604;BME280;7902;49.042;9.092;2023-12-07T11:45:59;99381.31;;;6.97;63.87
15604;BME280;7902;49.042;9.092;2023-12-07T11:48:25;99371.75;;;7.14;63.15
15604;BME280;7902;49.042;9.092;2023-12-07T11:50:57;99365.88;;;7.10;63.81
15604;BME280;7902;49.042;9.092;2023-12-07T11:53:28;99368.72;;;7.05;64.36
15604;BME280;7902;49.042;9.092;2023-12-07T11:56:02;99361.06;;;7.18;63.53
15604;BME280;7902;49.042;9.092;2023-12-07T11:58:29;99357.69;;;7.16;63.46
15604;BME280;7902;49.042;9.092;2023-12-07T12:00:56;99357.84;;;7.13;63.22
15604;BME280;7902;49.042;9.092;2023-12-07T12:03:24;99351.13;;;7.09;64.03
15604;BME280;7902;49.042;9.092;2023-12-07T12:05:50;99342.72;;;7.20;63.72
15604;BME280;7902;49.042;9.092;2023-12-07T12:08:17;99334.94;;;7.02;64.47
15604;BME280;7902;49.042;9.092;2023-12-07T12:10:44;99334.25;;;6.99;64.35
15604;BME280;7902;49.042;9.092;2023-12-07T12:13:11;99323.63;;;7.02;64.00
15604;BME280;7902;49.042;9.092;2023-12-07T12:15:38;99328.72;;;7.05;63.96
15604;BME280;7902;49.042;9.092;2023-12-07T12:18:05;99328.88;;;7.18;63.96
15604;BME280;7902;49.042;9.092;2023-12-07T12:20:33;99317.59;;;7.17;64.28
15604;BME280;7902;49.042;9.092;2023-12-07T12:22:59;99317.75;;;7.14;64.39
15604;BME280;7902;49.042;9.092;2023-12-07T12:25:27;99306.47;;;7.14;64.26
15604;BME280;7902;49.042;9.092;2023-12-07T12:28:02;99307.06;;;7.03;64.62
15604;BME280;7902;49.042;9.092;2023-12-07T12:30:30;99303.00;;;6.97;64.97
15604;BME280;7902;49.042;9.092;2023-12-07T12:32:56;99305.81;;;7.10;64.14
15604;BME280;7902;49.042;9.092;2023-12-07T12:35:23;99299.56;;;7.13;64.55
15604;BME280;7902;49.042;9.092;2023-12-07T12:37:49;99294.75;;;7.21;64.16
15604;BME280;7902;49.042;9.092;2023-12-07T12:40:17;99285.31;;;7.18;64.51
15604;BME280;7902;49.042;9.092;2023-12-07T12:42:48;99280.81;;;7.06;64.64
15604;BME280;7902;49.042;9.092;2023-12-07T12:45:15;99281.69;;;7.21;64.37
15604;BME280;7902;49.042;9.092;2023-12-07T12:47:42;99278.50;;;7.16;64.50
15604;BME280;7902;49.042;9.092;2023-12-07T12:50:13;99271.09;;;7.24;64.30
15604;BME280;7902;49.042;9.092;2023-12-07T12:52:58;99263.84;;;7.13;64.57
15604;BME280;7902;49.042;9.092;2023-12-07T12:55:28;99260.91;;;7.19;64.22
15604;BME280;7902;49.042;9.092;2023-12-07T12:57:56;99263.16;;;7.25;64.20
15604;BME280;7902;49.042;9.092;2023-12-07T13:00:24;99260.38;;;7.28;64.19
15604;BME280;7902;49.042;9.092;2023-12-07T13:02:50;99258.69;;;7.27;64.67
15604;BME280;7902;49.042;9.092;2023-12-07T13:05:16;99255.50;;;7.22;64.40
15604;BME280;7902;49.042;9.092;2023-12-07T13:07:45;99253.72;;;7.23;64.58
15604;BME280;7902;49.042;9.092;2023-12-07T13:10:15;99255.91;;;7.30;63.88
15604;BME280;7902;49.042;9.092;2023-12-07T13:12:41;99250.84;;;7.27;64.00
15604;BME280;7902;49.042;9.092;2023-12-07T13:15:08;99252.88;;;7.22;64.76
15604;BME280;7902;49.042;9.092;2023-12-07T13:17:34;99255.81;;;7.32;63.95
15604;BME280;7902;49.042;9.092;2023-12-07T13:20:00;99252.53;;;7.28;64.50
15604;BME280;7902;49.042;9.092;2023-12-07T13:22:26;99253.28;;;7.30;63.77
15604;BME280;7902;49.042;9.092;2023-12-07T13:24:52;99251.19;;;7.37;64.42
15604;BME280;7902;49.042;9.092;2023-12-07T13:27:18;99243.69;;;7.31;64.18
15604;BME280;7902;49.042;9.092;2023-12-07T13:29:44;99241.97;;;7.45;63.90